Weather at Texas Health Presbyterian Hospital Flower Mound Heliport

Public forecast

Using degrees Fahrenheit for public forecast. Weather courtesy of forecast.io.

Closest aviation weather report (METAR) to Texas Health Presbyterian Hospital Flower Mound Heliport

Closest report is Dallas Fort Worth International Airport, 9.1 nm (16.8 km) S.

2024/06/16 11:53 (retrieved 15 minutes ago)

KDFW 161153Z 19013KT 10SM FEW020 FEW100 SCT250 26/22 A2987 RMK AO2 SLP105 T02560222 10278 20256 53011

Closest aviation forecast (TAF) to Texas Health Presbyterian Hospital Flower Mound Heliport

Closest forecast is Dallas Fort Worth International Airport, 9.1 nm (16.8 km) S.

2024/06/16 12:22 (retrieved 0 seconds ago)

TAF KDFW 161120Z 1612/1718 17013KT P6SM FEW060 FEW250 FM171200 15011KT P6SM BKN025 FM171600 16015KT P6SM SCT040